Time;durP1;ratioP1;P1;durP2;ratioP2;P2;SDS_P1;SDS_P2;PMS_P1;PMS_P2;Temp;Humidity;BMP_temperature;BMP_pressure;BME280_temperature;BME280_humidity;BME280_pressure;Samples;Min_cycle;Max_cycle;Signal;HPM_P1;HPM_P2
2023/12/04 00:02:05;;;;;;;15.63;5.50;;;10.10;99.90;;;;;;4980044;28;20033;-90
2023/12/04 00:04:31;;;;;;;11.18;5.10;;;10.20;99.90;;;;;;4989614;28;20036;-90
2023/12/04 00:06:57;;;;;;;8.63;5.15;;;10.10;99.90;;;;;;5034537;28;20022;-89
2023/12/04 00:09:24;;;;;;;8.77;5.28;;;10.10;99.90;;;;;;5032870;28;20025;-89
2023/12/04 00:11:51;;;;;;;10.43;4.70;;;10.10;99.90;;;;;;5030090;28;20053;-84
2023/12/04 00:14:18;;;;;;;13.77;4.70;;;10.10;99.90;;;;;;5012975;28;20033;-87
2023/12/04 00:16:44;;;;;;;10.90;5.25;;;10.10;99.90;;;;;;5012870;28;20112;-85
2023/12/04 00:19:11;;;;;;;19.25;5.53;;;10.10;99.90;;;;;;5012950;28;20030;-86
2023/12/04 00:21:37;;;;;;;12.45;5.05;;;10.10;99.90;;;;;;5013131;28;20025;-86
2023/12/04 00:24:04;;;;;;;15.32;5.10;;;10.10;99.90;;;;;;5012859;28;20038;-85
2023/12/04 00:26:30;;;;;;;11.80;4.30;;;10.10;99.90;;;;;;4980473;28;20034;-86
2023/12/04 00:28:57;;;;;;;12.65;4.95;;;10.10;99.90;;;;;;4996881;28;20036;-84
2023/12/04 00:31:24;;;;;;;7.30;4.45;;;10.10;99.90;;;;;;4984017;28;20060;-83
2023/12/04 00:33:51;;;;;;;8.32;5.00;;;10.10;99.90;;;;;;4995413;28;20026;-82
2023/12/04 00:36:19;;;;;;;15.25;4.80;;;10.10;99.90;;;;;;4996850;28;20128;-84
2023/12/04 00:38:45;;;;;;;17.10;5.38;;;10.00;99.90;;;;;;4998844;28;20029;-82
2023/12/04 00:41:12;;;;;;;10.98;4.78;;;10.00;99.90;;;;;;4998787;28;20085;-82
2023/12/04 00:43:38;;;;;;;11.32;5.05;;;9.90;99.90;;;;;;5011755;28;20081;-81
2023/12/04 00:46:05;;;;;;;6.00;4.30;;;9.90;99.90;;;;;;4995493;28;20026;-82
2023/12/04 00:48:32;;;;;;;11.27;4.80;;;9.90;99.90;;;;;;5014656;28;20399;-82
2023/12/04 00:50:58;;;;;;;9.02;4.85;;;9.80;99.90;;;;;;5014945;28;20029;-82
2023/12/04 00:53:25;;;;;;;10.68;4.85;;;9.80;99.90;;;;;;5013923;28;20376;-81
2023/12/04 00:55:51;;;;;;;11.30;5.03;;;9.70;99.90;;;;;;5033741;28;20077;-82
2023/12/04 00:58:17;;;;;;;21.95;5.20;;;9.70;99.90;;;;;;5029409;28;20064;-82
2023/12/04 01:00:44;;;;;;;8.88;5.38;;;9.70;99.90;;;;;;5015148;28;20029;-82
2023/12/04 01:03:10;;;;;;;6.43;4.80;;;9.70;99.90;;;;;;5004325;28;20507;-82
2023/12/04 01:05:37;;;;;;;8.65;4.93;;;9.70;99.90;;;;;;4995544;28;20379;-82
2023/12/04 01:08:04;;;;;;;11.27;5.20;;;9.70;99.90;;;;;;4979167;28;20030;-82
2023/12/04 01:10:31;;;;;;;17.08;5.50;;;9.70;99.90;;;;;;5014512;28;20030;-82
2023/12/04 01:13:00;;;;;;;8.05;4.80;;;9.60;99.90;;;;;;5011829;28;20391;-82
2023/12/04 01:15:27;;;;;;;9.52;4.90;;;9.60;99.90;;;;;;5017877;28;20033;-82
2023/12/04 01:17:54;;;;;;;9.63;4.88;;;9.50;99.90;;;;;;5001878;28;20223;-82
2023/12/04 01:20:20;;;;;;;8.82;4.85;;;9.50;99.90;;;;;;5035965;28;20483;-81
2023/12/04 01:22:46;;;;;;;10.68;4.88;;;9.40;99.90;;;;;;5017953;28;20029;-83
2023/12/04 01:25:12;;;;;;;11.32;4.75;;;9.30;99.90;;;;;;5018290;28;20022;-82
2023/12/04 01:27:39;;;;;;;19.27;5.60;;;9.30;99.90;;;;;;5018171;28;20029;-82
2023/12/04 01:30:09;;;;;;;12.27;5.25;;;9.20;99.90;;;;;;5001899;28;20036;-82
2023/12/04 01:32:36;;;;;;;9.82;4.85;;;9.10;99.90;;;;;;4994906;28;20049;-82
2023/12/04 01:35:03;;;;;;;11.75;4.78;;;9.10;99.90;;;;;;4995030;28;20475;-82
2023/12/04 01:37:29;;;;;;;10.10;4.80;;;9.10;99.90;;;;;;4982112;28;20083;-82
2023/12/04 01:39:55;;;;;;;11.68;5.13;;;9.10;99.90;;;;;;4998384;28;20072;-82
2023/12/04 01:42:22;;;;;;;11.18;5.45;;;9.00;99.90;;;;;;4978777;28;20476;-82
2023/12/04 01:44:48;;;;;;;11.82;4.57;;;9.00;99.90;;;;;;5009093;28;20468;-82
2023/12/04 01:47:15;;;;;;;17.08;5.45;;;9.00;99.90;;;;;;4979116;28;20034;-82
2023/12/04 01:49:42;;;;;;;14.50;5.40;;;9.00;99.90;;;;;;4978597;28;20029;-82
2023/12/04 01:52:08;;;;;;;9.07;4.45;;;9.00;99.90;;;;;;4994668;28;20042;-82
2023/12/04 01:54:36;;;;;;;17.73;5.30;;;8.90;99.90;;;;;;4994730;28;20019;-82
2023/12/04 01:57:04;;;;;;;11.70;4.95;;;8.90;99.90;;;;;;4982396;28;20030;-82
2023/12/04 01:59:30;;;;;;;10.80;5.15;;;8.90;99.90;;;;;;4994687;28;20034;-82
2023/12/04 02:01:58;;;;;;;15.35;5.07;;;8.90;99.90;;;;;;4978360;28;20045;-82
2023/12/04 02:04:25;;;;;;;8.48;5.20;;;8.90;99.90;;;;;;4977294;28;20023;-82
2023/12/04 02:06:52;;;;;;;9.07;4.82;;;8.90;99.90;;;;;;4994568;28;20109;-81
2023/12/04 02:09:19;;;;;;;9.75;4.75;;;8.90;99.90;;;;;;4993470;28;20080;-82
2023/12/04 02:11:45;;;;;;;7.93;4.78;;;8.80;99.90;;;;;;4994530;28;20038;-82
2023/12/04 02:14:12;;;;;;;6.35;4.45;;;8.90;99.90;;;;;;4992740;28;20027;-82
2023/12/04 02:16:44;;;;;;;13.27;5.10;;;8.80;99.90;;;;;;4995684;28;20403;-82
2023/12/04 02:19:13;;;;;;;10.68;4.50;;;8.80;99.90;;;;;;4978216;28;20033;-82
2023/12/04 02:21:40;;;;;;;8.48;4.68;;;8.70;99.90;;;;;;4999254;28;20105;-82
2023/12/04 02:24:06;;;;;;;10.43;4.57;;;8.70;99.90;;;;;;4993406;28;20487;-82
2023/12/04 02:26:39;;;;;;;9.70;4.45;;;8.70;99.90;;;;;;4958677;28;20031;-82
2023/12/04 02:29:11;;;;;;;11.70;4.70;;;8.70;99.90;;;;;;4990496;28;20434;-81
2023/12/04 02:31:40;;;;;;;16.40;4.85;;;8.60;99.90;;;;;;4974278;28;20519;-83
2023/12/04 02:34:08;;;;;;;6.97;4.57;;;8.60;99.90;;;;;;4986995;28;20031;-82
2023/12/04 02:36:37;;;;;;;15.60;5.03;;;8.60;99.90;;;;;;4995849;28;20430;-82
2023/12/04 02:39:04;;;;;;;8.23;5.28;;;8.60;99.90;;;;;;4988716;28;20026;-81
2023/12/04 02:41:31;;;;;;;10.27;5.00;;;8.50;99.90;;;;;;4998941;28;20073;-82
2023/12/04 02:44:00;;;;;;;10.45;4.65;;;8.50;99.90;;;;;;4975310;28;20022;-82
2023/12/04 02:46:27;;;;;;;9.75;4.72;;;8.50;99.90;;;;;;5006316;28;20080;-82
2023/12/04 02:48:53;;;;;;;8.57;4.72;;;8.50;99.90;;;;;;4993924;28;20027;-80
2023/12/04 02:51:19;;;;;;;11.85;4.32;;;8.50;99.90;;;;;;4977423;28;20411;-82
2023/12/04 02:53:46;;;;;;;10.27;5.30;;;8.50;99.90;;;;;;5007979;28;20041;-82
2023/12/04 02:56:12;;;;;;;11.75;4.78;;;8.50;99.90;;;;;;4994195;28;20101;-82
2023/12/04 02:58:38;;;;;;;12.95;4.68;;;8.50;99.90;;;;;;5009894;28;20060;-82
2023/12/04 03:01:05;;;;;;;9.20;4.47;;;8.40;99.90;;;;;;4993517;28;20026;-82
2023/12/04 03:03:31;;;;;;;7.03;4.88;;;8.40;99.90;;;;;;5008088;28;20057;-81
2023/12/04 03:05:58;;;;;;;10.55;4.70;;;8.40;99.90;;;;;;4993560;28;20483;-81
2023/12/04 03:08:27;;;;;;;10.27;4.65;;;8.40;99.90;;;;;;4979069;28;20041;-83
2023/12/04 03:10:53;;;;;;;10.95;5.05;;;8.40;99.90;;;;;;4992659;28;20046;-82
2023/12/04 03:13:20;;;;;;;7.57;4.30;;;8.40;99.90;;;;;;4986936;28;20030;-82
2023/12/04 03:15:46;;;;;;;9.70;4.57;;;8.40;99.90;;;;;;5013012;28;20109;-82
2023/12/04 03:18:13;;;;;;;11.00;4.20;;;8.50;99.90;;;;;;4996562;28;20101;-82
2023/12/04 03:20:39;;;;;;;12.07;4.63;;;8.50;99.90;;;;;;4976713;28;20515;-82
2023/12/04 03:23:05;;;;;;;12.15;5.00;;;8.50;99.90;;;;;;4970635;28;20054;-81
2023/12/04 03:25:32;;;;;;;16.75;4.65;;;8.50;99.90;;;;;;4979904;28;20064;-82
2023/12/04 03:27:58;;;;;;;11.13;4.88;;;8.50;99.90;;;;;;4992949;28;20034;-81
2023/12/04 03:30:25;;;;;;;9.80;4.68;;;8.50;99.90;;;;;;4953253;29;20616;-82
2023/12/04 03:32:51;;;;;;;9.90;5.05;;;8.60;99.90;;;;;;4938680;29;20051;-82
2023/12/04 03:35:17;;;;;;;13.75;4.88;;;8.70;99.90;;;;;;4937033;28;20043;-82
2023/12/04 03:37:44;;;;;;;8.18;4.40;;;8.70;99.90;;;;;;4937224;29;20035;-82
2023/12/04 03:40:11;;;;;;;15.52;4.72;;;8.90;99.90;;;;;;4950318;28;20043;-82
2023/12/04 03:42:37;;;;;;;14.73;5.05;;;9.00;99.90;;;;;;4953064;29;20031;-81
2023/12/04 03:45:04;;;;;;;13.15;4.60;;;9.10;99.90;;;;;;4952972;28;20039;-81
2023/12/04 03:47:30;;;;;;;12.95;4.53;;;9.20;99.90;;;;;;4953149;29;20024;-81
2023/12/04 03:49:57;;;;;;;18.98;5.00;;;9.30;99.90;;;;;;4952760;29;20082;-82
2023/12/04 03:52:23;;;;;;;12.00;5.68;;;9.30;99.90;;;;;;4936897;29;20106;-82
2023/12/04 03:54:50;;;;;;;9.55;4.97;;;9.30;99.90;;;;;;4920466;29;20493;-82
2023/12/04 03:57:16;;;;;;;10.68;4.70;;;9.30;99.90;;;;;;4936583;29;20035;-81
2023/12/04 03:59:45;;;;;;;8.98;4.30;;;9.40;99.90;;;;;;4937042;29;20031;-81
2023/12/04 04:02:12;;;;;;;7.20;4.30;;;9.40;99.90;;;;;;4992809;28;20054;-82
2023/12/04 04:04:38;;;;;;;10.93;4.28;;;9.30;99.90;;;;;;4960305;28;20030;-80
2023/12/04 04:07:05;;;;;;;9.40;4.97;;;9.30;99.90;;;;;;4993413;28;20380;-81
2023/12/04 04:09:32;;;;;;;10.82;4.97;;;9.20;99.90;;;;;;4976362;28;20030;-79
2023/12/04 04:11:59;;;;;;;12.50;5.05;;;9.30;99.90;;;;;;4979338;28;20045;-81
2023/12/04 04:14:26;;;;;;;10.23;4.53;;;9.30;99.90;;;;;;4967131;28;20022;-81
2023/12/04 04:16:52;;;;;;;13.15;4.82;;;9.30;99.90;;;;;;4976233;28;20053;-81
2023/12/04 04:19:19;;;;;;;11.00;4.90;;;9.30;99.90;;;;;;5003126;28;20006;-81
2023/12/04 04:21:45;;;;;;;13.75;4.97;;;9.30;99.90;;;;;;4999177;28;20037;-81
2023/12/04 04:24:12;;;;;;;6.97;4.78;;;9.40;99.90;;;;;;4995487;28;20038;-81
2023/12/04 04:26:38;;;;;;;12.85;5.25;;;9.30;99.90;;;;;;4976100;28;20484;-81
2023/12/04 04:29:05;;;;;;;10.60;4.60;;;9.40;99.90;;;;;;5004747;28;20035;-79
2023/12/04 04:31:32;;;;;;;10.77;4.97;;;9.40;99.90;;;;;;4997735;28;20057;-80
2023/12/04 04:33:58;;;;;;;9.23;4.95;;;9.40;99.90;;;;;;5006091;28;20029;-80
2023/12/04 04:36:24;;;;;;;12.38;5.28;;;9.40;99.90;;;;;;5011751;28;20026;-81
2023/12/04 04:38:51;;;;;;;9.68;5.00;;;9.40;99.90;;;;;;5011890;28;20030;-81
2023/12/04 04:41:20;;;;;;;11.25;4.82;;;9.40;99.90;;;;;;5011772;28;20049;-80
2023/12/04 04:43:46;;;;;;;17.80;5.07;;;9.40;99.90;;;;;;5011429;28;20065;-81
2023/12/04 04:46:16;;;;;;;12.85;5.07;;;9.40;99.90;;;;;;5011687;28;20022;-82
2023/12/04 04:48:42;;;;;;;6.32;4.72;;;9.40;99.90;;;;;;5014162;28;20026;-82
2023/12/04 04:51:09;;;;;;;8.10;4.68;;;9.40;99.90;;;;;;5015500;28;20514;-80
2023/12/04 04:53:35;;;;;;;7.80;4.63;;;9.40;99.90;;;;;;5015582;28;20085;-81
2023/12/04 04:56:02;;;;;;;11.70;4.85;;;9.40;99.90;;;;;;4995675;28;20399;-81
2023/12/04 04:58:28;;;;;;;12.13;4.43;;;9.40;99.90;;;;;;4979551;28;20615;-80
2023/12/04 05:00:55;;;;;;;9.88;4.25;;;9.40;99.90;;;;;;4995868;28;20031;-81
2023/12/04 05:03:21;;;;;;;12.32;4.35;;;9.40;99.90;;;;;;5005865;28;20045;-82
2023/12/04 05:05:51;;;;;;;9.18;4.78;;;9.40;99.90;;;;;;4998994;28;20022;-82
2023/12/04 05:08:17;;;;;;;11.48;4.53;;;9.40;99.90;;;;;;4998516;28;20036;-82
2023/12/04 05:10:43;;;;;;;10.52;4.90;;;9.50;99.90;;;;;;5008456;28;20116;-82
2023/12/04 05:13:09;;;;;;;10.15;4.80;;;9.50;99.90;;;;;;4998846;28;20037;-81
2023/12/04 05:15:36;;;;;;;7.25;4.60;;;9.50;99.90;;;;;;5015256;28;20026;-81
2023/12/04 05:18:02;;;;;;;9.80;5.80;;;9.50;99.90;;;;;;5016367;28;20036;-82
2023/12/04 05:20:28;;;;;;;10.10;5.47;;;9.50;99.90;;;;;;5016159;28;20030;-81
2023/12/04 05:22:56;;;;;;;11.25;4.90;;;9.50;99.90;;;;;;5014791;28;20022;-81
2023/12/04 05:25:23;;;;;;;7.38;5.20;;;9.50;99.90;;;;;;5016017;28;20192;-82
2023/12/04 05:27:49;;;;;;;5.53;4.50;;;9.40;99.90;;;;;;5016090;28;20053;-82
2023/12/04 05:30:16;;;;;;;13.68;5.20;;;9.40;99.90;;;;;;4998501;28;20096;-82
2023/12/04 05:32:42;;;;;;;10.50;5.25;;;9.40;99.90;;;;;;5014045;28;20551;-81
2023/12/04 05:35:09;;;;;;;14.75;6.13;;;9.40;99.90;;;;;;5001032;28;20169;-82
2023/12/04 05:37:35;;;;;;;8.70;5.50;;;9.30;99.90;;;;;;4998682;28;20087;-81
2023/12/04 05:40:04;;;;;;;11.50;5.93;;;9.30;99.90;;;;;;4982118;28;20026;-81
2023/12/04 05:42:31;;;;;;;15.23;5.57;;;9.30;99.90;;;;;;4998181;28;20029;-82
2023/12/04 05:44:57;;;;;;;8.63;4.95;;;9.30;99.90;;;;;;4993202;28;20117;-81
2023/12/04 05:47:24;;;;;;;9.10;4.90;;;9.30;99.90;;;;;;4998299;28;20029;-82
2023/12/04 05:49:50;;;;;;;9.63;5.13;;;9.20;99.90;;;;;;5014541;28;20034;-82
2023/12/04 05:52:20;;;;;;;8.07;5.90;;;9.20;99.90;;;;;;4997824;28;20064;-82
2023/12/04 05:54:47;;;;;;;10.02;5.55;;;9.20;99.90;;;;;;5014555;28;20071;-82
2023/12/04 05:57:13;;;;;;;8.43;5.75;;;9.20;99.90;;;;;;5015588;28;20041;-82
2023/12/04 05:59:40;;;;;;;8.73;5.65;;;9.20;99.90;;;;;;5020105;28;20082;-82
2023/12/04 06:02:06;;;;;;;7.70;5.53;;;9.20;99.90;;;;;;5011886;28;20033;-82
2023/12/04 06:04:32;;;;;;;8.98;5.72;;;9.20;99.90;;;;;;5014590;28;20076;-82
2023/12/04 06:06:59;;;;;;;10.55;6.05;;;9.20;99.90;;;;;;5014178;28;20052;-81
2023/12/04 06:09:25;;;;;;;7.03;6.05;;;9.20;99.90;;;;;;5015227;28;20052;-81
2023/12/04 06:11:51;;;;;;;8.77;6.00;;;9.20;99.90;;;;;;4981353;28;20517;-81
2023/12/04 06:14:18;;;;;;;13.50;5.88;;;9.20;99.90;;;;;;5011173;28;20534;-81
2023/12/04 06:16:44;;;;;;;8.25;6.28;;;9.20;99.90;;;;;;5012564;28;20022;-82
2023/12/04 06:19:10;;;;;;;8.25;5.88;;;9.20;99.90;;;;;;5012714;28;20025;-81
2023/12/04 06:21:37;;;;;;;7.63;5.85;;;9.30;99.90;;;;;;5013810;28;20108;-81
2023/12/04 06:24:03;;;;;;;12.13;5.72;;;9.30;99.90;;;;;;5014232;28;20029;-81
2023/12/04 06:26:33;;;;;;;9.45;5.68;;;9.30;99.90;;;;;;5013138;28;20033;-83
2023/12/04 06:29:00;;;;;;;10.07;6.75;;;9.40;99.90;;;;;;5014779;28;20057;-84
2023/12/04 06:31:27;;;;;;;12.65;6.97;;;9.50;99.90;;;;;;5012065;28;20108;-86
2023/12/04 06:33:59;;;;;;;9.82;6.70;;;9.70;99.90;;;;;;4982494;28;20034;-86
2023/12/04 06:36:29;;;;;;;8.35;7.45;;;9.80;99.90;;;;;;4982646;28;20104;-86
2023/12/04 06:38:56;;;;;;;10.95;8.80;;;10.00;99.90;;;;;;4981711;28;20036;-85
2023/12/04 06:41:23;;;;;;;10.68;9.45;;;10.20;99.90;;;;;;4981363;28;20130;-83
2023/12/04 06:43:53;;;;;;;11.40;10.02;;;10.50;99.90;;;;;;4982369;28;20034;-85
2023/12/04 06:46:24;;;;;;;11.43;10.52;;;10.60;99.90;;;;;;4982308;28;20057;-86
2023/12/04 06:48:55;;;;;;;12.75;11.85;;;10.80;99.90;;;;;;4981165;28;20056;-81
2023/12/04 06:51:21;;;;;;;14.13;12.90;;;11.00;99.90;;;;;;4978909;28;20031;-81
2023/12/04 06:53:48;;;;;;;14.82;13.48;;;11.20;99.90;;;;;;5014324;28;20454;-82
2023/12/04 06:56:14;;;;;;;16.05;14.75;;;11.40;99.90;;;;;;4980654;28;20183;-81
2023/12/04 06:58:41;;;;;;;16.63;15.32;;;11.50;99.90;;;;;;4980555;28;20034;-82
2023/12/04 07:01:07;;;;;;;17.77;16.17;;;11.70;99.90;;;;;;5014365;28;20022;-81
2023/12/04 07:03:34;;;;;;;18.23;16.63;;;11.90;99.90;;;;;;4990579;28;20036;-86
2023/12/04 07:06:01;;;;;;;17.90;16.70;;;12.10;99.90;;;;;;4981696;28;20091;-87
2023/12/04 07:08:27;;;;;;;18.48;17.17;;;12.20;99.90;;;;;;4981608;28;20025;-86
2023/12/04 07:10:54;;;;;;;19.20;17.20;;;12.40;99.90;;;;;;4980809;28;20061;-86
2023/12/04 07:13:23;;;;;;;18.30;16.90;;;12.40;99.90;;;;;;4981364;28;20026;-83
2023/12/04 07:15:50;;;;;;;19.30;17.77;;;12.50;99.90;;;;;;4980794;28;20053;-83
2023/12/04 07:18:16;;;;;;;19.88;18.08;;;12.50;99.90;;;;;;4980566;28;20059;-85
2023/12/04 07:20:43;;;;;;;21.27;19.17;;;12.60;99.90;;;;;;4997414;28;20026;-86
2023/12/04 07:23:09;;;;;;;19.65;18.23;;;12.60;99.90;;;;;;4981188;28;20365;-85
2023/12/04 07:25:36;;;;;;;21.23;19.50;;;12.70;99.90;;;;;;4980943;28;20022;-84
2023/12/04 07:28:02;;;;;;;21.95;19.80;;;12.80;99.90;;;;;;4980677;28;20084;-82
2023/12/04 07:30:29;;;;;;;21.10;19.27;;;12.90;99.90;;;;;;4980640;28;20495;-82
2023/12/04 07:32:55;;;;;;;21.98;20.50;;;13.00;99.90;;;;;;4980170;28;20442;-83
2023/12/04 07:35:22;;;;;;;24.60;22.35;;;13.10;99.90;;;;;;4980254;28;20088;-85
2023/12/04 07:37:48;;;;;;;24.30;22.40;;;13.30;99.90;;;;;;4981253;28;20095;-83
2023/12/04 07:40:15;;;;;;;23.75;22.10;;;13.50;99.90;;;;;;4996468;28;20030;-82
2023/12/04 07:42:42;;;;;;;24.17;22.38;;;13.60;99.90;;;;;;5024579;28;20030;-83
2023/12/04 07:45:10;;;;;;;23.50;21.88;;;13.60;99.90;;;;;;4976748;28;20365;-83
2023/12/04 07:47:36;;;;;;;23.08;21.48;;;13.60;99.90;;;;;;4996300;28;20050;-83
2023/12/04 07:50:03;;;;;;;22.27;20.88;;;13.60;99.90;;;;;;5011208;28;20022;-82
2023/12/04 07:52:30;;;;;;;21.83;20.30;;;13.50;99.90;;;;;;5013531;28;20095;-83
2023/12/04 07:54:57;;;;;;;22.50;20.73;;;13.50;99.90;;;;;;5013634;28;20105;-83
2023/12/04 07:57:23;;;;;;;21.52;20.02;;;13.40;99.90;;;;;;5013674;28;20479;-83
2023/12/04 07:59:50;;;;;;;20.55;19.33;;;13.40;99.90;;;;;;5013474;28;20033;-82
2023/12/04 08:02:16;;;;;;;21.77;20.02;;;13.40;99.90;;;;;;4979748;28;20415;-83
2023/12/04 08:04:42;;;;;;;21.80;20.02;;;13.30;99.90;;;;;;4979666;28;20192;-82
2023/12/04 08:07:09;;;;;;;21.08;19.77;;;13.20;99.90;;;;;;4979611;28;20029;-81
2023/12/04 08:09:35;;;;;;;21.35;19.52;;;13.00;99.90;;;;;;4979561;28;20026;-82
2023/12/04 08:12:01;;;;;;;21.77;19.80;;;12.90;99.90;;;;;;4979625;28;20034;-82
2023/12/04 08:14:28;;;;;;;21.27;19.42;;;13.00;99.90;;;;;;4973546;28;20031;-81
2023/12/04 08:16:54;;;;;;;22.27;20.45;;;12.80;99.90;;;;;;4996290;28;20033;-82
2023/12/04 08:19:20;;;;;;;21.90;19.88;;;12.90;99.90;;;;;;4978888;28;20365;-83
2023/12/04 08:21:49;;;;;;;22.80;21.20;;;12.90;99.90;;;;;;4995521;28;20471;-82
2023/12/04 08:24:21;;;;;;;22.85;21.17;;;13.00;99.90;;;;;;4983732;28;20038;-83
2023/12/04 08:26:50;;;;;;;22.42;20.95;;;13.10;99.90;;;;;;5017345;28;20054;-83
2023/12/04 08:29:17;;;;;;;22.58;21.00;;;13.20;99.90;;;;;;4999761;28;20022;-83
2023/12/04 08:31:44;;;;;;;22.85;21.25;;;13.30;99.90;;;;;;4980069;28;20054;-86
2023/12/04 08:34:10;;;;;;;23.10;21.73;;;13.40;99.90;;;;;;5010080;28;20080;-82
2023/12/04 08:36:36;;;;;;;23.88;22.10;;;13.30;99.90;;;;;;4999660;28;20483;-84
2023/12/04 08:39:03;;;;;;;25.40;23.55;;;13.30;99.90;;;;;;5015929;28;20105;-83
2023/12/04 08:41:30;;;;;;;25.33;23.52;;;13.40;99.90;;;;;;4999715;28;20145;-84
2023/12/04 08:43:56;;;;;;;24.83;23.23;;;13.40;99.90;;;;;;4987822;28;20018;-81
2023/12/04 08:46:23;;;;;;;25.70;23.92;;;13.50;99.90;;;;;;4997924;28;20396;-80
2023/12/04 08:48:49;;;;;;;25.67;23.83;;;13.50;99.90;;;;;;4983040;28;20104;-81
2023/12/04 08:51:18;;;;;;;25.40;23.63;;;13.50;99.90;;;;;;4998907;28;20029;-81
2023/12/04 08:53:45;;;;;;;25.38;23.77;;;13.60;99.90;;;;;;4989173;28;20030;-81
2023/12/04 08:56:12;;;;;;;25.80;24.15;;;13.70;99.90;;;;;;4996312;28;20033;-81
2023/12/04 08:58:38;;;;;;;25.98;24.40;;;13.80;99.90;;;;;;4999000;28;20076;-80
2023/12/04 09:01:05;;;;;;;26.73;24.83;;;13.90;99.90;;;;;;4982945;28;20384;-81
2023/12/04 09:03:31;;;;;;;27.15;24.92;;;13.90;99.90;;;;;;4998693;28;20042;-81
2023/12/04 09:05:59;;;;;;;27.48;25.65;;;13.90;99.90;;;;;;4998951;28;20487;-81
2023/12/04 09:08:28;;;;;;;27.85;26.25;;;14.00;99.90;;;;;;5016536;28;20052;-81
2023/12/04 09:10:56;;;;;;;28.45;26.58;;;14.00;99.90;;;;;;4998990;28;20033;-81
2023/12/04 09:13:23;;;;;;;28.42;26.42;;;14.10;99.90;;;;;;5010483;28;20030;-81
2023/12/04 09:15:49;;;;;;;28.88;27.23;;;14.10;99.90;;;;;;4982475;28;20050;-81
2023/12/04 09:18:16;;;;;;;28.77;26.67;;;14.20;99.90;;;;;;5016279;28;20022;-81
2023/12/04 09:20:42;;;;;;;28.58;26.67;;;14.20;99.90;;;;;;5016258;28;20514;-81
2023/12/04 09:23:09;;;;;;;28.80;26.65;;;14.20;99.90;;;;;;4998354;28;20033;-81
2023/12/04 09:25:36;;;;;;;29.17;27.02;;;14.20;99.90;;;;;;4998488;28;20036;-81
2023/12/04 09:28:03;;;;;;;28.27;26.45;;;14.30;99.90;;;;;;5001120;28;20165;-81
2023/12/04 09:30:29;;;;;;;27.70;26.08;;;14.20;99.90;;;;;;5018675;28;20030;-81
2023/12/04 09:32:58;;;;;;;29.95;27.70;;;14.20;99.90;;;;;;4983751;28;20054;-80
2023/12/04 09:35:24;;;;;;;27.60;26.02;;;14.20;99.90;;;;;;4980869;28;20496;-81
2023/12/04 09:37:50;;;;;;;28.02;25.92;;;14.30;99.90;;;;;;4982215;28;20602;-81
2023/12/04 09:40:17;;;;;;;28.10;26.60;;;14.30;99.90;;;;;;4982039;28;20030;-81
2023/12/04 09:42:44;;;;;;;28.35;26.65;;;14.20;99.90;;;;;;4997494;28;20022;-81
2023/12/04 09:45:11;;;;;;;28.63;26.55;;;14.10;99.90;;;;;;4978965;28;20026;-80
2023/12/04 09:47:38;;;;;;;28.75;27.05;;;14.10;99.90;;;;;;4998052;28;20120;-80
2023/12/04 09:50:05;;;;;;;28.25;26.52;;;14.20;99.90;;;;;;4978249;28;20026;-81
2023/12/04 09:52:35;;;;;;;27.98;26.27;;;14.30;99.90;;;;;;4980775;28;20054;-81
2023/12/04 09:55:01;;;;;;;28.33;26.67;;;14.20;99.90;;;;;;4997652;28;20253;-81
2023/12/04 09:57:29;;;;;;;29.10;27.40;;;14.20;99.90;;;;;;4998140;28;20062;-82
2023/12/04 09:59:55;;;;;;;29.48;27.42;;;14.20;99.90;;;;;;5015377;28;20487;-82
2023/12/04 10:02:22;;;;;;;28.25;26.65;;;14.10;99.90;;;;;;4981692;28;20037;-82
2023/12/04 10:04:49;;;;;;;28.48;26.63;;;14.10;99.90;;;;;;4978384;28;20022;-82
2023/12/04 10:07:15;;;;;;;29.83;27.75;;;14.20;99.90;;;;;;4992961;28;20380;-82
2023/12/04 10:09:41;;;;;;;29.40;27.45;;;14.20;99.90;;;;;;4981685;28;20033;-82
2023/12/04 10:12:09;;;;;;;28.98;27.38;;;14.30;99.90;;;;;;4981412;28;20454;-82
2023/12/04 10:14:35;;;;;;;29.35;27.52;;;14.30;99.90;;;;;;5011530;28;20022;-82
2023/12/04 10:17:18;;;;;;;29.33;27.33;;;14.30;99.90;;;;;;4981368;28;20091;-81
2023/12/04 10:19:44;;;;;;;29.13;27.35;;;14.20;99.90;;;;;;4982073;28;20026;-82
2023/12/04 10:22:11;;;;;;;29.25;27.13;;;14.20;99.90;;;;;;4997580;28;20053;-81
2023/12/04 10:24:40;;;;;;;28.95;26.98;;;14.20;99.90;;;;;;4997468;28;20431;-81
2023/12/04 10:27:12;;;;;;;29.00;27.38;;;14.20;99.90;;;;;;4977947;28;20070;-82
2023/12/04 10:29:50;;;;;;;29.88;27.92;;;14.40;99.90;;;;;;4977942;28;20061;-81
2023/12/04 10:32:23;;;;;;;28.25;26.65;;;14.60;99.90;;;;;;4977963;28;20049;-82
2023/12/04 10:34:50;;;;;;;29.67;27.73;;;14.40;99.90;;;;;;5014689;28;20383;-82
2023/12/04 10:37:16;;;;;;;29.23;27.52;;;14.30;99.90;;;;;;4980882;28;20034;-82
2023/12/04 10:39:50;;;;;;;29.83;27.92;;;14.30;99.90;;;;;;4980879;28;20033;-82
2023/12/04 10:42:30;;;;;;;29.95;28.15;;;14.30;99.90;;;;;;4996955;28;20044;-82
2023/12/04 10:44:57;;;;;;;30.42;28.33;;;14.30;99.90;;;;;;4996600;28;20105;-81
2023/12/04 10:47:24;;;;;;;29.55;27.83;;;14.40;99.90;;;;;;4996833;28;20481;-82
2023/12/04 10:49:52;;;;;;;29.77;27.98;;;14.30;99.90;;;;;;4997199;28;20061;-81
2023/12/04 10:52:19;;;;;;;30.13;28.20;;;14.20;99.90;;;;;;5014333;28;20026;-80
2023/12/04 10:54:49;;;;;;;30.35;28.17;;;14.30;99.90;;;;;;5014563;28;20049;-80
2023/12/04 10:57:27;;;;;;;29.50;27.77;;;14.30;99.90;;;;;;4996987;28;20113;-79
2023/12/04 10:59:58;;;;;;;30.10;27.95;;;14.40;99.90;;;;;;4997212;28;20026;-80
2023/12/04 11:02:26;;;;;;;29.15;27.27;;;14.50;99.90;;;;;;4980606;28;20084;-81
2023/12/04 11:04:59;;;;;;;29.00;27.10;;;14.50;99.90;;;;;;5014338;28;20025;-83
2023/12/04 11:07:30;;;;;;;28.75;27.00;;;14.40;99.90;;;;;;4980668;28;20091;-79
2023/12/04 11:09:59;;;;;;;29.13;27.27;;;14.40;99.90;;;;;;5014511;28;20026;-80
2023/12/04 11:12:31;;;;;;;29.10;27.08;;;14.40;99.90;;;;;;5007642;28;20029;-80
2023/12/04 11:15:02;;;;;;;28.98;27.08;;;14.40;99.90;;;;;;4999126;28;20030;-81
2023/12/04 11:17:34;;;;;;;29.30;27.42;;;14.40;99.90;;;;;;4981296;28;20034;-80
2023/12/04 11:20:10;;;;;;;30.25;27.90;;;14.40;99.90;;;;;;4998080;28;20034;-80
2023/12/04 11:22:40;;;;;;;28.77;27.05;;;14.40;99.90;;;;;;4980884;28;20109;-83
2023/12/04 11:25:08;;;;;;;29.38;27.27;;;14.40;99.90;;;;;;4993051;28;20073;-80
2023/12/04 11:27:35;;;;;;;29.40;27.40;;;14.40;99.90;;;;;;4977827;28;20105;-81
2023/12/04 11:30:06;;;;;;;28.90;27.20;;;14.30;99.90;;;;;;4977016;28;20121;-81
2023/12/04 11:32:46;;;;;;;29.83;27.83;;;14.40;99.90;;;;;;4996344;28;20499;-81
2023/12/04 11:35:17;;;;;;;29.40;27.50;;;14.40;99.90;;;;;;4996726;28;20076;-81
2023/12/04 11:37:47;;;;;;;29.30;27.60;;;14.40;99.90;;;;;;4981387;28;20050;-81
2023/12/04 11:40:16;;;;;;;29.13;27.20;;;14.30;99.90;;;;;;5013697;28;20018;-81
2023/12/04 11:42:43;;;;;;;29.10;27.35;;;14.30;99.90;;;;;;5004083;28;20030;-81
2023/12/04 11:45:10;;;;;;;29.83;27.70;;;14.30;99.90;;;;;;4995510;28;20578;-81
2023/12/04 11:47:49;;;;;;;29.58;27.38;;;14.20;99.90;;;;;;4979979;28;20046;-81
2023/12/04 11:50:17;;;;;;;30.05;27.73;;;14.20;99.90;;;;;;4979997;28;20026;-81
2023/12/04 11:52:43;;;;;;;30.42;28.33;;;14.30;99.90;;;;;;4979701;28;20491;-81
2023/12/04 11:55:10;;;;;;;31.35;29.10;;;14.20;99.90;;;;;;4979676;28;20045;-80
2023/12/04 11:57:39;;;;;;;30.63;28.48;;;14.20;99.90;;;;;;4979678;28;20036;-81
2023/12/04 12:00:16;;;;;;;30.38;28.58;;;14.30;99.90;;;;;;4979727;28;20030;-81
2023/12/04 12:03:01;;;;;;;30.42;28.35;;;14.20;99.90;;;;;;4995841;28;20053;-81
2023/12/04 12:05:27;;;;;;;29.80;28.00;;;14.20;99.90;;;;;;4979617;28;20440;-81
2023/12/04 12:07:54;;;;;;;29.50;27.63;;;14.20;99.90;;;;;;4995902;28;20100;-81
2023/12/04 12:10:22;;;;;;;29.73;28.02;;;14.20;99.90;;;;;;4979473;28;20080;-80
2023/12/04 12:12:48;;;;;;;30.67;28.70;;;14.20;99.90;;;;;;5013062;28;20038;-81
2023/12/04 12:15:15;;;;;;;31.13;28.58;;;14.30;99.90;;;;;;4979368;28;20084;-80
2023/12/04 12:17:42;;;;;;;31.13;29.08;;;14.40;99.90;;;;;;4979355;28;20029;-81
2023/12/04 12:20:10;;;;;;;29.63;27.83;;;14.30;99.90;;;;;;4995501;28;20037;-80
2023/12/04 12:22:41;;;;;;;30.75;28.70;;;14.30;99.90;;;;;;4979732;28;20033;-84
2023/12/04 12:25:08;;;;;;;31.38;29.08;;;14.10;99.90;;;;;;4980017;28;20060;-83
2023/12/04 12:27:35;;;;;;;30.73;28.67;;;14.20;99.90;;;;;;4996198;28;20026;-82
2023/12/04 12:30:04;;;;;;;32.47;30.13;;;14.20;99.90;;;;;;4995952;28;20549;-83
2023/12/04 12:32:35;;;;;;;30.92;28.85;;;14.30;99.90;;;;;;4979548;28;20057;-83
2023/12/04 12:35:03;;;;;;;30.40;28.05;;;14.40;99.90;;;;;;4996222;28;20029;-82
2023/12/04 12:37:30;;;;;;;29.50;27.70;;;14.30;99.90;;;;;;4998850;28;20032;-82
2023/12/04 12:39:57;;;;;;;29.85;27.90;;;14.40;99.90;;;;;;4998937;28;20025;-82